Time;durP1;ratioP1;P1;durP2;ratioP2;P2;SDS_P1;SDS_P2;PMS_P1;PMS_P2;Temp;Humidity;BMP_temperature;BMP_pressure;BME280_temperature;BME280_humidity;BME280_pressure;Samples;Min_cycle;Max_cycle;Signal;HPM_P1;HPM_P2
2022/06/24 00:01:56;;;;;;;4.85;4.35;;;22.10;99.90;;;;;;5054664;28;20166;-78
2022/06/24 00:04:23;;;;;;;4.57;4.13;;;22.00;99.90;;;;;;5054779;28;20200;-78
2022/06/24 00:06:49;;;;;;;4.63;4.22;;;22.00;99.90;;;;;;5071446;28;20213;-78
2022/06/24 00:09:16;;;;;;;4.57;4.18;;;22.00;99.90;;;;;;5054827;28;20206;-79
2022/06/24 00:11:42;;;;;;;4.45;4.05;;;22.00;99.90;;;;;;5071274;28;20177;-77
2022/06/24 00:14:10;;;;;;;4.53;4.13;;;21.90;99.90;;;;;;5054355;28;20178;-78
2022/06/24 00:17:02;;;;;;;4.53;4.10;;;22.00;99.90;;;;;;5071015;28;20182;-78
2022/06/24 00:19:30;;;;;;;4.90;4.50;;;22.00;99.90;;;;;;5054873;28;20181;-78
2022/06/24 00:22:11;;;;;;;5.05;4.43;;;22.00;99.90;;;;;;5054236;28;20235;-78
2022/06/24 00:24:39;;;;;;;4.80;4.40;;;22.00;99.90;;;;;;5070877;28;20190;-78
2022/06/24 00:27:24;;;;;;;6.20;4.70;;;22.00;99.90;;;;;;5054510;28;20185;-79
2022/06/24 00:29:51;;;;;;;4.72;4.32;;;21.90;99.90;;;;;;5054194;28;20158;-78
2022/06/24 00:32:30;;;;;;;6.07;4.80;;;21.90;99.90;;;;;;5054276;28;20679;-78
2022/06/24 00:35:12;;;;;;;4.97;4.47;;;21.90;99.90;;;;;;5071438;28;20235;-79
2022/06/24 00:37:40;;;;;;;5.15;4.65;;;21.80;99.90;;;;;;5071097;28;20161;-79
2022/06/24 00:40:11;;;;;;;4.90;4.50;;;21.80;99.90;;;;;;5071124;28;20576;-79
2022/06/24 00:42:42;;;;;;;5.47;5.00;;;21.80;99.90;;;;;;5054414;28;20206;-79
2022/06/24 00:45:26;;;;;;;5.20;4.70;;;21.70;99.90;;;;;;5054428;28;20206;-79
2022/06/24 00:47:54;;;;;;;5.25;4.80;;;21.70;99.90;;;;;;5055181;28;20161;-79
2022/06/24 00:50:26;;;;;;;5.45;4.97;;;21.70;99.90;;;;;;5055076;28;20170;-79
2022/06/24 00:52:53;;;;;;;5.10;4.68;;;21.70;99.90;;;;;;5053259;28;20174;-79
2022/06/24 00:55:41;;;;;;;6.47;4.88;;;21.60;99.90;;;;;;5053172;28;20653;-79
2022/06/24 00:58:12;;;;;;;5.22;4.72;;;21.50;99.90;;;;;;5069814;28;20188;-79
2022/06/24 01:00:42;;;;;;;5.20;4.70;;;21.50;99.90;;;;;;5054351;28;20322;-79
2022/06/24 01:03:08;;;;;;;4.65;4.25;;;21.50;99.90;;;;;;5069761;28;20181;-79
2022/06/24 01:05:34;;;;;;;5.15;4.65;;;21.50;99.90;;;;;;5053425;28;20197;-79
2022/06/24 01:08:08;;;;;;;6.03;5.43;;;21.20;99.90;;;;;;5073044;28;20668;-79
2022/06/24 01:10:34;;;;;;;4.95;4.13;;;21.00;99.90;;;;;;5073285;28;20605;-79
2022/06/24 01:13:00;;;;;;;4.35;3.70;;;21.00;99.90;;;;;;5056355;28;20185;-79
2022/06/24 01:15:26;;;;;;;7.38;3.88;;;21.10;99.90;;;;;;5039994;28;20239;-78
2022/06/24 01:17:51;;;;;;;4.43;3.35;;;21.20;99.90;;;;;;5055018;28;20166;-78
2022/06/24 01:20:17;;;;;;;5.28;3.53;;;21.30;99.90;;;;;;5052685;28;20180;-79
2022/06/24 01:22:44;;;;;;;4.85;3.45;;;21.30;99.90;;;;;;5052081;28;20174;-79
2022/06/24 01:25:11;;;;;;;7.78;3.22;;;21.30;99.90;;;;;;5068649;28;20194;-79
2022/06/24 01:27:37;;;;;;;6.28;3.42;;;21.30;99.90;;;;;;5051819;28;20276;-79
2022/06/24 01:30:04;;;;;;;5.53;3.20;;;21.30;99.90;;;;;;5068523;28;20209;-79
2022/06/24 01:32:30;;;;;;;8.45;3.28;;;21.30;99.90;;;;;;5068231;28;20206;-79
2022/06/24 01:34:56;;;;;;;6.45;3.20;;;21.30;99.90;;;;;;5051779;28;20584;-79
2022/06/24 01:37:24;;;;;;;5.47;3.20;;;21.30;99.90;;;;;;5051614;28;20204;-79
2022/06/24 01:39:50;;;;;;;8.98;3.40;;;21.30;99.90;;;;;;5068210;28;20177;-79
2022/06/24 01:42:16;;;;;;;6.63;3.08;;;21.30;99.90;;;;;;5051453;28;20174;-79
2022/06/24 01:44:42;;;;;;;5.50;3.00;;;21.20;99.90;;;;;;5051472;28;20225;-78
2022/06/24 01:47:07;;;;;;;3.15;2.78;;;21.20;99.90;;;;;;5051432;28;20185;-78
2022/06/24 01:49:34;;;;;;;6.50;2.67;;;21.10;99.90;;;;;;5051385;28;20181;-79
2022/06/24 01:52:00;;;;;;;6.30;2.67;;;21.10;99.90;;;;;;5050957;28;20710;-79
2022/06/24 01:54:26;;;;;;;6.78;2.60;;;21.00;99.90;;;;;;5051087;28;20201;-78
2022/06/24 01:56:53;;;;;;;4.55;2.70;;;20.80;99.90;;;;;;5067568;28;20178;-79
2022/06/24 01:59:19;;;;;;;4.63;2.60;;;20.80;99.90;;;;;;5052486;28;20162;-79
2022/06/24 02:01:45;;;;;;;7.03;3.05;;;20.70;99.90;;;;;;5067609;28;20548;-78
2022/06/24 02:04:11;;;;;;;6.50;2.25;;;20.70;99.90;;;;;;5050991;28;20268;-78
2022/06/24 02:06:37;;;;;;;5.30;2.45;;;20.60;99.90;;;;;;5050884;28;20181;-79
2022/06/24 02:09:03;;;;;;;3.27;2.33;;;20.60;99.90;;;;;;5067752;28;20178;-79
2022/06/24 02:14:14;;;;;;;8.85;2.80;;;20.70;99.90;;;;;;5052678;28;20820;-79
2022/06/24 02:16:40;;;;;;;5.32;2.20;;;20.70;99.90;;;;;;5052713;28;20189;-80
2022/06/24 02:19:06;;;;;;;5.70;2.37;;;20.30;99.90;;;;;;5070523;28;20182;-80
2022/06/24 02:21:33;;;;;;;10.70;3.67;;;19.80;99.90;;;;;;5053628;28;20636;-80
2022/06/24 02:23:59;;;;;;;7.63;3.13;;;19.50;99.90;;;;;;5053851;28;20193;-81
2022/06/24 02:26:25;;;;;;;5.33;2.20;;;19.30;99.90;;;;;;5070610;28;20192;-81
2022/06/24 02:28:52;;;;;;;4.67;2.00;;;19.10;99.90;;;;;;5053250;28;20571;-80
2022/06/24 02:31:17;;;;;;;4.03;2.00;;;19.00;99.90;;;;;;5054108;28;20233;-79
2022/06/24 02:33:43;;;;;;;6.37;2.20;;;18.90;99.90;;;;;;5052882;28;20706;-79
2022/06/24 02:36:09;;;;;;;6.10;2.40;;;18.70;99.90;;;;;;5052656;28;20220;-80
2022/06/24 02:38:35;;;;;;;8.40;2.33;;;18.70;99.90;;;;;;5069734;28;20173;-80
2022/06/24 02:41:01;;;;;;;5.87;2.30;;;18.70;99.90;;;;;;5053217;28;20205;-79
2022/06/24 02:43:32;;;;;;;6.30;2.07;;;18.70;99.90;;;;;;5052377;28;20273;-80
2022/06/24 02:46:00;;;;;;;3.63;2.17;;;18.70;99.90;;;;;;5053209;28;20223;-80
2022/06/24 02:48:27;;;;;;;4.73;2.23;;;18.90;99.90;;;;;;5036216;28;20189;-80
2022/06/24 02:50:55;;;;;;;4.37;2.20;;;18.80;99.90;;;;;;5069333;28;20534;-79
2022/06/24 02:53:22;;;;;;;6.77;2.20;;;18.70;99.90;;;;;;5052373;28;20636;-80
2022/06/24 02:55:53;;;;;;;5.27;2.20;;;18.80;99.90;;;;;;5068630;28;20214;-79
2022/06/24 02:58:18;;;;;;;8.67;2.40;;;18.80;99.90;;;;;;5052192;28;20198;-79
2022/06/24 03:00:45;;;;;;;5.17;2.30;;;18.90;99.90;;;;;;5035714;28;20215;-80
2022/06/24 03:03:19;;;;;;;5.53;2.37;;;18.90;99.90;;;;;;5052034;28;20169;-80
2022/06/24 03:05:45;;;;;;;4.30;2.40;;;19.00;99.90;;;;;;5068780;28;20545;-79
2022/06/24 03:08:13;;;;;;;6.37;2.40;;;19.00;99.90;;;;;;5053617;28;20224;-79
2022/06/24 03:10:39;;;;;;;5.37;2.20;;;19.00;99.90;;;;;;5052557;28;20186;-80
2022/06/24 03:13:05;;;;;;;4.50;2.10;;;19.00;99.90;;;;;;5052051;28;20186;-80
2022/06/24 03:15:31;;;;;;;4.53;2.27;;;19.10;99.90;;;;;;5053387;28;20202;-79
2022/06/24 03:17:57;;;;;;;4.57;2.00;;;19.10;99.90;;;;;;5071077;28;20181;-80
2022/06/24 03:20:23;;;;;;;5.47;2.20;;;19.10;99.90;;;;;;5055845;28;20185;-80
2022/06/24 03:22:49;;;;;;;4.63;2.10;;;19.10;99.90;;;;;;5055648;28;20177;-79
2022/06/24 03:25:15;;;;;;;3.93;1.90;;;19.10;99.90;;;;;;5072412;28;20220;-80
2022/06/24 03:27:40;;;;;;;5.67;2.03;;;19.10;99.90;;;;;;5055495;28;20543;-80
2022/06/24 03:30:08;;;;;;;3.87;2.20;;;19.10;99.90;;;;;;5055300;28;20193;-79
2022/06/24 03:32:34;;;;;;;3.93;1.80;;;18.90;99.90;;;;;;5054878;28;20661;-79
2022/06/24 03:35:01;;;;;;;5.73;2.20;;;18.90;99.90;;;;;;5071353;28;20228;-79
2022/06/24 03:37:28;;;;;;;6.43;2.37;;;18.80;99.90;;;;;;5054908;28;20185;-79
2022/06/24 03:39:54;;;;;;;5.63;2.23;;;18.80;99.90;;;;;;5071805;28;20178;-79
2022/06/24 03:42:20;;;;;;;3.20;2.07;;;18.70;99.90;;;;;;5071334;28;20180;-79
2022/06/24 03:44:46;;;;;;;4.90;2.30;;;18.80;99.90;;;;;;5055048;28;20205;-80
2022/06/24 03:47:12;;;;;;;5.87;2.47;;;18.80;99.90;;;;;;5071654;28;20205;-79
2022/06/24 03:49:37;;;;;;;4.47;1.93;;;18.80;99.90;;;;;;5038249;28;20212;-79
2022/06/24 03:52:04;;;;;;;6.13;2.30;;;18.90;99.90;;;;;;5054810;28;20174;-80
2022/06/24 03:54:30;;;;;;;4.63;2.20;;;19.00;99.90;;;;;;5054658;28;20202;-79
2022/06/24 03:56:55;;;;;;;5.40;2.40;;;19.20;99.90;;;;;;5054799;28;20566;-81
2022/06/24 03:59:21;;;;;;;6.73;2.63;;;19.10;99.90;;;;;;5054745;28;20186;-81
2022/06/24 04:01:46;;;;;;;4.30;2.10;;;19.10;99.90;;;;;;5055573;28;20184;-81
2022/06/24 04:04:12;;;;;;;5.33;2.47;;;19.20;99.90;;;;;;5055884;28;20173;-81
2022/06/24 04:06:38;;;;;;;5.70;2.20;;;19.20;99.90;;;;;;5055814;28;20174;-81
2022/06/24 04:09:03;;;;;;;6.47;2.30;;;19.20;99.90;;;;;;5056519;28;20173;-80
2022/06/24 04:11:29;;;;;;;4.13;2.23;;;19.30;99.90;;;;;;5038565;28;20636;-80
2022/06/24 04:13:54;;;;;;;4.93;2.37;;;19.30;99.90;;;;;;5055189;28;20178;-81
2022/06/24 04:16:23;;;;;;;5.03;2.17;;;19.40;99.90;;;;;;5055326;28;20213;-81
2022/06/24 04:18:48;;;;;;;3.60;2.20;;;19.20;99.90;;;;;;5072167;28;20647;-80
2022/06/24 04:21:15;;;;;;;6.80;2.37;;;19.20;99.90;;;;;;5055649;28;20173;-80
2022/06/24 04:23:42;;;;;;;3.93;2.23;;;19.20;99.90;;;;;;5055311;28;20174;-80
2022/06/24 04:26:08;;;;;;;2.97;2.20;;;19.20;99.90;;;;;;5071986;28;20201;-80
2022/06/24 04:28:35;;;;;;;4.03;2.38;;;19.20;99.90;;;;;;5071117;28;20177;-81
2022/06/24 04:31:00;;;;;;;6.70;2.47;;;19.30;99.90;;;;;;5055254;28;20205;-78
2022/06/24 04:33:26;;;;;;;5.38;2.22;;;19.30;99.90;;;;;;5053522;28;20182;-80
2022/06/24 04:35:52;;;;;;;5.00;2.10;;;19.40;99.90;;;;;;5053522;28;20252;-80
2022/06/24 04:38:18;;;;;;;4.63;2.20;;;19.40;99.90;;;;;;5070653;28;20280;-79
2022/06/24 04:40:44;;;;;;;5.85;1.92;;;19.40;99.90;;;;;;5053756;28;20260;-80
2022/06/24 04:43:09;;;;;;;9.57;2.30;;;19.40;99.90;;;;;;5070099;28;20632;-80
2022/06/24 04:45:36;;;;;;;3.00;2.20;;;19.40;99.90;;;;;;5054367;28;20335;-80
2022/06/24 04:48:02;;;;;;;4.07;2.10;;;19.50;99.90;;;;;;5053883;28;20185;-79
2022/06/24 04:50:28;;;;;;;3.58;2.22;;;19.50;99.90;;;;;;5070594;28;20181;-79
2022/06/24 04:52:53;;;;;;;5.90;2.45;;;19.60;99.90;;;;;;5053772;28;20178;-79
2022/06/24 04:55:19;;;;;;;3.43;2.50;;;19.40;99.90;;;;;;5053708;28;20239;-79
2022/06/24 04:57:48;;;;;;;5.53;2.30;;;19.40;99.90;;;;;;5053368;28;20268;-79
2022/06/24 05:00:15;;;;;;;5.95;2.70;;;19.50;99.90;;;;;;5070318;28;20180;-79
2022/06/24 05:02:41;;;;;;;5.32;2.20;;;19.50;99.90;;;;;;5036588;28;20170;-78
2022/06/24 05:05:11;;;;;;;5.43;2.70;;;19.60;99.90;;;;;;5053258;28;20221;-80
2022/06/24 05:07:38;;;;;;;3.03;2.50;;;19.60;99.90;;;;;;5052931;28;20197;-79
2022/06/24 05:10:04;;;;;;;4.40;1.92;;;19.50;99.90;;;;;;5053229;28;20181;-79
2022/06/24 05:12:30;;;;;;;5.65;2.10;;;19.60;99.90;;;;;;5052750;28;20177;-78
2022/06/24 05:14:56;;;;;;;3.20;1.97;;;19.60;99.90;;;;;;5053029;28;20209;-79
2022/06/24 05:17:22;;;;;;;4.75;2.25;;;19.60;99.90;;;;;;5069651;28;20166;-78
2022/06/24 05:19:48;;;;;;;4.03;2.05;;;19.70;99.90;;;;;;5068900;28;20177;-78
2022/06/24 05:22:13;;;;;;;2.72;2.00;;;19.60;99.90;;;;;;5051596;28;20268;-78
2022/06/24 05:24:39;;;;;;;4.57;2.33;;;19.50;99.90;;;;;;5051662;28;20205;-78
2022/06/24 05:27:05;;;;;;;4.03;2.13;;;19.60;99.90;;;;;;5051873;28;20189;-78
2022/06/24 05:29:30;;;;;;;3.38;1.83;;;19.70;99.90;;;;;;5052203;28;20180;-78
2022/06/24 05:31:56;;;;;;;5.25;2.33;;;19.80;99.90;;;;;;5051839;28;20185;-78
2022/06/24 05:34:22;;;;;;;4.60;2.40;;;19.90;99.90;;;;;;5052155;28;20232;-78
2022/06/24 05:36:47;;;;;;;3.78;2.00;;;19.90;99.90;;;;;;5052575;28;20174;-81
2022/06/24 05:39:13;;;;;;;3.38;2.00;;;20.00;99.90;;;;;;5052017;28;20174;-79
2022/06/24 05:41:41;;;;;;;3.83;2.30;;;20.00;99.90;;;;;;5052398;28;20178;-79
2022/06/24 05:44:07;;;;;;;4.57;2.28;;;20.00;99.90;;;;;;5052534;28;20265;-79
2022/06/24 05:46:32;;;;;;;3.72;2.20;;;19.90;99.90;;;;;;5052906;28;20205;-79
2022/06/24 05:48:58;;;;;;;3.33;2.20;;;20.00;99.90;;;;;;5052562;28;20181;-79
2022/06/24 05:51:25;;;;;;;3.53;2.03;;;20.10;99.90;;;;;;5069183;28;20644;-79
2022/06/24 05:56:35;;;;;;;3.95;2.72;;;20.00;99.90;;;;;;5052598;28;20232;-79
2022/06/24 05:59:01;;;;;;;5.20;2.42;;;20.10;99.90;;;;;;5052129;28;20174;-79
2022/06/24 06:01:27;;;;;;;5.20;2.10;;;20.10;99.90;;;;;;5052012;28;20178;-79
2022/06/24 06:03:54;;;;;;;7.05;2.30;;;20.20;99.90;;;;;;5068687;28;20170;-78
2022/06/24 06:06:19;;;;;;;5.65;2.40;;;20.20;99.90;;;;;;5052423;28;20702;-78
2022/06/24 06:08:46;;;;;;;5.93;2.20;;;20.30;99.90;;;;;;5051725;28;20173;-78
2022/06/24 06:11:22;;;;;;;5.15;2.53;;;20.30;99.90;;;;;;5068065;28;20716;-77
2022/06/24 06:13:49;;;;;;;4.20;2.35;;;20.20;99.90;;;;;;5067590;28;20632;-78
2022/06/24 06:16:15;;;;;;;3.53;2.15;;;20.40;99.90;;;;;;5050964;28;20209;-78
2022/06/24 06:18:41;;;;;;;3.40;2.35;;;20.50;99.90;;;;;;5052291;28;20174;-78
2022/06/24 06:21:09;;;;;;;5.40;2.55;;;20.50;99.90;;;;;;5050730;28;20281;-77
2022/06/24 06:23:35;;;;;;;4.47;2.17;;;20.60;99.90;;;;;;5051136;28;20653;-79
2022/06/24 06:26:03;;;;;;;2.47;1.70;;;20.50;99.90;;;;;;5068160;28;20291;-78
2022/06/24 06:28:29;;;;;;;2.45;1.70;;;20.50;99.90;;;;;;5052406;28;20170;-78
2022/06/24 06:30:54;;;;;;;3.33;2.00;;;20.30;99.90;;;;;;5067571;28;20208;-79
2022/06/24 06:33:20;;;;;;;3.88;1.90;;;20.20;99.90;;;;;;5067516;28;20178;-79
2022/06/24 06:35:46;;;;;;;2.08;1.58;;;20.20;99.90;;;;;;5062141;22;20219;-76
2022/06/24 06:38:11;;;;;;;4.15;1.50;;;20.20;99.90;;;;;;5011274;28;20175;-76
2022/06/24 06:40:38;;;;;;;2.70;1.40;;;20.30;99.90;;;;;;4994829;28;20554;-76
2022/06/24 06:43:07;;;;;;;3.05;1.23;;;20.20;99.90;;;;;;4994704;28;20642;-76
2022/06/24 06:45:37;;;;;;;2.00;1.33;;;20.20;99.90;;;;;;5001434;28;20339;-76
2022/06/24 06:48:04;;;;;;;2.08;1.20;;;20.10;99.90;;;;;;4992617;28;20676;-76
2022/06/24 06:50:30;;;;;;;1.88;1.30;;;20.00;99.90;;;;;;4991465;28;20176;-76
2022/06/24 06:52:55;;;;;;;3.07;1.30;;;20.00;99.90;;;;;;4977949;28;20186;-76
2022/06/24 06:55:21;;;;;;;2.17;1.13;;;20.10;99.90;;;;;;4995121;28;20219;-76
2022/06/24 06:57:47;;;;;;;1.70;1.20;;;20.10;99.90;;;;;;4978658;28;20266;-76
2022/06/24 07:00:14;;;;;;;2.77;1.20;;;20.10;99.90;;;;;;4978963;28;20230;-76
2022/06/24 07:02:40;;;;;;;1.97;1.10;;;20.20;99.90;;;;;;4994751;28;20172;-76
2022/06/24 07:05:07;;;;;;;2.65;1.20;;;20.20;99.90;;;;;;4994984;28;20192;-76
2022/06/24 07:07:33;;;;;;;2.83;1.10;;;20.40;99.90;;;;;;4979202;28;20218;-76
2022/06/24 07:09:59;;;;;;;1.90;0.98;;;20.40;99.90;;;;;;4978956;28;20207;-76
2022/06/24 07:12:25;;;;;;;1.23;0.93;;;20.40;99.90;;;;;;4994664;28;20597;-76
2022/06/24 07:14:51;;;;;;;1.77;1.05;;;20.30;99.90;;;;;;4995881;28;20214;-76
2022/06/24 07:17:17;;;;;;;2.70;1.33;;;20.30;99.90;;;;;;4994749;28;20167;-76
2022/06/24 07:19:44;;;;;;;4.13;1.60;;;20.30;99.90;;;;;;4978782;28;20551;-76
2022/06/24 07:22:09;;;;;;;2.42;1.25;;;20.30;99.90;;;;;;4994569;28;20243;-76
2022/06/24 07:24:36;;;;;;;4.23;1.30;;;20.20;99.90;;;;;;4978531;28;20267;-76
2022/06/24 07:27:03;;;;;;;2.23;1.20;;;20.20;99.90;;;;;;4994696;28;20172;-76
2022/06/24 07:29:33;;;;;;;2.17;1.27;;;20.20;99.90;;;;;;4978424;28;20684;-76
2022/06/24 07:31:59;;;;;;;3.30;1.30;;;20.20;99.90;;;;;;4978216;28;20191;-76
2022/06/24 07:34:26;;;;;;;3.33;1.40;;;20.30;99.90;;;;;;4978101;28;20184;-76
2022/06/24 07:36:52;;;;;;;3.50;1.40;;;20.30;99.90;;;;;;4978478;28;20206;-76
2022/06/24 07:39:18;;;;;;;3.43;1.77;;;20.20;99.90;;;;;;4978263;28;20179;-76
2022/06/24 07:41:43;;;;;;;2.77;1.43;;;20.20;99.90;;;;;;4978429;28;20187;-76
2022/06/24 07:44:09;;;;;;;3.17;1.60;;;20.10;99.90;;;;;;4978052;28;20188;-76
2022/06/24 07:46:35;;;;;;;2.70;1.77;;;20.10;99.90;;;;;;4977849;28;20269;-76
2022/06/24 07:49:00;;;;;;;2.73;1.83;;;20.20;99.90;;;;;;4978217;28;20191;-76
2022/06/24 07:51:26;;;;;;;3.67;1.73;;;20.20;99.90;;;;;;4978174;28;20195;-76
2022/06/24 07:53:51;;;;;;;2.90;1.90;;;20.20;99.90;;;;;;4995221;28;20230;-76
2022/06/24 07:57:18;;;;;;;2.30;1.90;;;20.30;99.90;;;;;;4977555;28;20212;-76
2022/06/24 07:59:13;;;;;;;4.38;1.90;;;20.30;99.90;;;;;;4986170;28;20233;-76
2022/06/24 08:01:38;;;;;;;4.97;2.23;;;20.40;99.90;;;;;;4977887;28;20184;-76
2022/06/24 08:04:07;;;;;;;2.72;1.95;;;20.40;99.90;;;;;;4977424;28;20203;-76
2022/06/24 08:06:37;;;;;;;4.20;2.07;;;20.60;99.90;;;;;;4978266;28;20207;-76
2022/06/24 08:09:03;;;;;;;3.23;2.13;;;20.60;99.90;;;;;;4995005;28;20651;-76
2022/06/24 08:11:29;;;;;;;3.23;2.07;;;20.50;99.90;;;;;;4993674;28;20234;-76
2022/06/24 08:13:55;;;;;;;4.85;2.40;;;20.50;99.90;;;;;;4993861;28;20171;-76
2022/06/24 08:16:22;;;;;;;5.43;2.40;;;20.60;99.90;;;;;;4993379;28;20589;-76
2022/06/24 08:18:49;;;;;;;4.63;2.10;;;20.90;99.90;;;;;;4977871;28;20171;-78
2022/06/24 08:21:14;;;;;;;4.60;2.10;;;21.00;99.90;;;;;;4993733;28;20176;-77
2022/06/24 08:23:40;;;;;;;4.73;2.10;;;21.00;99.90;;;;;;4993636;28;20179;-78
2022/06/24 08:26:06;;;;;;;3.45;1.90;;;21.00;99.90;;;;;;4977314;28;20206;-77
2022/06/24 08:28:31;;;;;;;5.65;2.25;;;21.10;99.90;;;;;;4977802;28;20190;-78
2022/06/24 08:31:03;;;;;;;4.65;2.15;;;21.40;99.90;;;;;;4993537;28;20692;-76
2022/06/24 08:33:29;;;;;;;4.15;2.00;;;21.40;99.90;;;;;;4978158;28;20175;-76
2022/06/24 08:35:55;;;;;;;3.92;2.10;;;21.40;99.90;;;;;;4977617;28;20219;-76
2022/06/24 08:38:20;;;;;;;3.08;2.20;;;21.60;99.90;;;;;;4977757;28;20225;-76
2022/06/24 08:41:20;;;;;;;3.83;2.30;;;21.60;99.90;;;;;;4993461;28;20255;-76
2022/06/24 08:43:49;;;;;;;5.10;2.38;;;21.70;99.90;;;;;;4994882;28;20191;-77
2022/06/24 08:46:15;;;;;;;2.55;2.35;;;21.70;99.90;;;;;;4993732;28;20614;-76
2022/06/24 08:48:42;;;;;;;2.95;2.10;;;21.80;99.90;;;;;;4977449;28;20184;-77
2022/06/24 08:51:12;;;;;;;4.25;2.35;;;21.90;99.90;;;;;;4977820;28;20183;-77
2022/06/24 08:53:39;;;;;;;5.05;2.10;;;21.90;99.90;;;;;;4993516;28;20179;-76
2022/06/24 08:56:05;;;;;;;4.53;2.72;;;21.70;99.90;;;;;;4993216;28;20690;-76
2022/06/24 08:58:31;;;;;;;2.95;2.25;;;21.50;99.90;;;;;;4993456;28;20237;-76
2022/06/24 09:00:57;;;;;;;4.85;2.38;;;21.50;99.90;;;;;;4994671;28;20168;-77
2022/06/24 09:03:22;;;;;;;4.28;2.25;;;21.70;99.90;;;;;;4976893;28;20206;-77
2022/06/24 09:05:48;;;;;;;3.80;2.38;;;22.00;99.90;;;;;;4977267;28;20259;-76
2022/06/24 09:08:15;;;;;;;3.38;2.40;;;22.20;99.90;;;;;;4993156;28;20650;-76
2022/06/24 09:10:43;;;;;;;4.60;2.25;;;22.10;99.90;;;;;;4993292;28;20233;-76
2022/06/24 09:13:29;;;;;;;3.55;2.40;;;22.00;99.90;;;;;;4993019;28;20184;-76
2022/06/24 09:15:55;;;;;;;4.20;2.70;;;22.00;99.90;;;;;;4991661;28;20693;-76
2022/06/24 09:18:22;;;;;;;3.25;2.38;;;22.20;99.90;;;;;;4977255;28;20188;-76
2022/06/24 09:20:49;;;;;;;4.13;2.72;;;22.50;99.90;;;;;;4977112;28;20207;-76
2022/06/24 09:23:15;;;;;;;6.05;2.65;;;22.70;99.90;;;;;;4993086;28;20600;-76
2022/06/24 09:25:50;;;;;;;5.95;2.72;;;22.90;99.90;;;;;;4992788;28;20291;-76
2022/06/24 09:28:27;;;;;;;5.65;2.40;;;23.00;99.90;;;;;;4977720;28;20164;-77
2022/06/24 09:31:00;;;;;;;3.10;2.60;;;23.10;99.90;;;;;;4992797;28;20176;-76
2022/06/24 09:33:25;;;;;;;3.10;2.45;;;23.20;99.90;;;;;;4992624;28;20191;-76
2022/06/24 09:36:02;;;;;;;3.25;2.60;;;23.40;99.90;;;;;;4976305;28;20317;-76
2022/06/24 09:38:28;;;;;;;3.13;2.28;;;23.20;99.90;;;;;;4992768;28;20180;-76
2022/06/24 09:41:10;;;;;;;4.72;2.40;;;23.00;99.90;;;;;;4992265;28;20262;-77
2022/06/24 09:43:36;;;;;;;3.55;2.67;;;23.10;99.90;;;;;;4992769;28;20172;-77
2022/06/24 09:46:01;;;;;;;2.90;2.40;;;23.40;99.90;;;;;;4976599;28;20207;-77
2022/06/24 09:48:30;;;;;;;3.80;2.47;;;23.50;99.90;;;;;;4976666;28;20239;-77
2022/06/24 09:51:04;;;;;;;4.03;2.60;;;23.30;99.90;;;;;;4993610;28;20163;-77
2022/06/24 09:53:35;;;;;;;5.95;2.67;;;23.10;99.90;;;;;;4976305;28;20210;-77
2022/06/24 09:56:02;;;;;;;3.83;2.25;;;23.50;99.90;;;;;;4992331;28;20258;-77
2022/06/24 09:58:28;;;;;;;2.83;2.50;;;23.70;99.90;;;;;;4992634;28;20184;-77
2022/06/24 10:00:55;;;;;;;5.07;2.40;;;23.90;99.90;;;;;;4992655;28;20176;-77
2022/06/24 10:03:21;;;;;;;2.67;2.30;;;24.30;99.90;;;;;;4992158;28;20206;-77
2022/06/24 10:05:49;;;;;;;4.88;2.35;;;24.20;99.90;;;;;;4976009;28;20235;-77
2022/06/24 10:08:22;;;;;;;5.07;2.35;;;24.10;99.90;;;;;;4976299;28;20646;-77
2022/06/24 10:10:53;;;;;;;3.22;2.28;;;23.60;99.90;;;;;;4977288;28;20210;-77
2022/06/24 10:13:27;;;;;;;3.15;2.20;;;23.20;99.90;;;;;;4992008;28;20176;-75
2022/06/24 10:15:55;;;;;;;4.22;2.20;;;22.90;99.90;;;;;;4976336;28;20302;-75
2022/06/24 10:18:26;;;;;;;4.13;2.70;;;22.70;99.90;;;;;;4976184;28;20200;-74
2022/06/24 10:21:01;;;;;;;3.08;2.30;;;22.70;99.90;;;;;;4992229;28;20230;-76
2022/06/24 10:23:37;;;;;;;3.40;2.70;;;22.60;99.90;;;;;;4975818;28;20617;-75
2022/06/24 10:26:28;;;;;;;4.03;2.70;;;22.50;99.90;;;;;;4992096;28;20199;-77
2022/06/24 10:29:00;;;;;;;3.17;2.35;;;22.60;99.90;;;;;;4976294;28;20172;-76
2022/06/24 10:31:44;;;;;;;3.20;2.10;;;23.10;99.90;;;;;;4992227;28;20175;-75
2022/06/24 10:34:26;;;;;;;4.72;2.13;;;23.30;99.90;;;;;;4992189;28;20171;-76
2022/06/24 10:36:54;;;;;;;2.90;2.00;;;23.20;99.90;;;;;;4991854;28;20783;-76
2022/06/24 10:39:22;;;;;;;4.72;1.95;;;23.10;99.90;;;;;;4975934;28;20194;-76
2022/06/24 10:45:10;;;;;;;3.25;2.10;;;22.80;99.90;;;;;;4993345;28;20218;-75
2022/06/24 10:47:35;;;;;;;2.72;2.20;;;22.50;99.90;;;;;;4975712;28;20207;-75
2022/06/24 10:50:02;;;;;;;2.88;2.42;;;22.50;99.90;;;;;;4991797;28;20186;-75
2022/06/24 10:52:35;;;;;;;4.25;2.67;;;22.40;99.90;;;;;;4991626;28;20187;-75
2022/06/24 10:55:17;;;;;;;3.30;2.50;;;22.30;99.90;;;;;;4975728;28;20211;-75
2022/06/24 10:57:45;;;;;;;3.63;2.60;;;22.10;99.90;;;;;;4992932;28;20251;-75
2022/06/24 11:00:15;;;;;;;3.45;2.40;;;22.40;99.90;;;;;;4992007;28;20241;-75
2022/06/24 11:02:42;;;;;;;3.35;2.40;;;23.00;99.90;;;;;;4991934;28;20250;-75
2022/06/24 11:05:13;;;;;;;2.10;1.90;;;23.40;99.90;;;;;;4975825;28;20238;-75
2022/06/24 11:07:46;;;;;;;5.30;2.20;;;23.90;99.90;;;;;;4975958;28;20176;-75
2022/06/24 11:10:20;;;;;;;3.15;1.80;;;24.20;99.90;;;;;;4975482;28;20203;-75
2022/06/24 11:12:54;;;;;;;2.83;1.90;;;24.50;99.90;;;;;;4991834;28;20186;-75
2022/06/24 11:15:42;;;;;;;1.92;1.83;;;24.50;99.90;;;;;;4991530;28;20214;-75
2022/06/24 11:18:12;;;;;;;3.28;2.00;;;24.30;99.90;;;;;;4991982;28;20164;-75
2022/06/24 11:20:52;;;;;;;4.28;2.10;;;24.80;99.90;;;;;;4991643;28;20631;-75
2022/06/24 11:23:19;;;;;;;2.70;1.80;;;24.70;99.90;;;;;;4991733;28;20310;-75
2022/06/24 11:25:48;;;;;;;2.53;1.80;;;24.70;99.90;;;;;;4991852;28;20200;-75
2022/06/24 11:28:24;;;;;;;4.13;1.88;;;24.40;99.90;;;;;;4991825;28;20176;-75
2022/06/24 11:30:51;;;;;;;2.50;1.60;;;24.10;99.90;;;;;;4991478;28;20179;-75
2022/06/24 11:33:17;;;;;;;2.75;2.03;;;23.90;99.90;;;;;;4975246;28;20175;-75
2022/06/24 11:35:44;;;;;;;3.22;2.03;;;23.80;99.90;;;;;;4991391;28;20298;-75
2022/06/24 11:38:10;;;;;;;2.63;1.63;;;23.90;99.90;;;;;;4976838;28;20202;-75
2022/06/24 11:40:58;;;;;;;2.28;1.70;;;23.80;99.90;;;;;;4978651;28;20176;-75
2022/06/24 11:43:24;;;;;;;1.80;1.70;;;23.90;99.90;;;;;;4994791;28;20306;-75
2022/06/24 11:45:50;;;;;;;1.85;1.70;;;24.10;99.90;;;;;;4978638;28;20211;-75
2022/06/24 11:48:23;;;;;;;2.20;1.90;;;24.30;99.90;;;;;;4978547;28;20731;-75
2022/06/24 11:50:51;;;;;;;2.63;1.73;;;24.30;99.90;;;;;;4979600;28;20246;-75
2022/06/24 11:53:22;;;;;;;2.45;1.60;;;24.40;99.90;;;;;;4978518;28;20207;-75
2022/06/24 11:55:50;;;;;;;1.88;1.50;;;24.20;99.90;;;;;;4994571;28;20203;-75
2022/06/24 11:58:19;;;;;;;1.65;1.55;;;24.00;99.90;;;;;;4978743;28;20665;-75
2022/06/24 12:00:46;;;;;;;2.50;1.90;;;23.90;99.90;;;;;;4978554;28;20545;-76
2022/06/24 12:03:13;;;;;;;2.50;1.70;;;23.80;99.90;;;;;;4978203;28;20222;-76
2022/06/24 12:05:42;;;;;;;1.75;1.60;;;23.90;99.90;;;;;;4994398;28;20207;-75
2022/06/24 12:08:09;;;;;;;2.08;1.70;;;23.90;99.90;;;;;;4994345;28;20256;-75
2022/06/24 12:10:35;;;;;;;3.65;1.80;;;24.00;99.90;;;;;;4978442;28;20176;-75
2022/06/24 12:13:07;;;;;;;2.65;1.83;;;24.10;99.90;;;;;;4978126;28;20226;-75
2022/06/24 12:15:36;;;;;;;3.15;1.67;;;24.00;99.90;;;;;;4978598;28;20219;-75
2022/06/24 12:18:11;;;;;;;1.70;1.60;;;24.20;99.90;;;;;;4994464;28;20237;-75
2022/06/24 12:20:37;;;;;;;3.97;1.70;;;24.20;99.90;;;;;;4979250;28;20168;-75
2022/06/24 12:23:20;;;;;;;2.85;1.90;;;23.90;99.90;;;;;;4978120;28;20179;-75
2022/06/24 12:25:49;;;;;;;2.83;1.58;;;23.90;99.90;;;;;;4994182;28;20253;-75
2022/06/24 12:28:22;;;;;;;2.00;1.77;;;23.80;99.90;;;;;;4994331;28;20207;-75
2022/06/24 12:31:17;;;;;;;1.80;1.70;;;23.80;99.90;;;;;;4994226;28;20175;-75
2022/06/24 12:33:46;;;;;;;2.70;1.92;;;23.80;99.90;;;;;;4969321;28;20190;-75
2022/06/24 12:36:16;;;;;;;3.45;1.83;;;23.80;99.90;;;;;;5048006;22;20275;-77
2022/06/24 12:38:59;;;;;;;2.25;2.05;;;23.70;99.90;;;;;;5017574;28;20213;-77
2022/06/24 12:41:49;;;;;;;2.22;1.80;;;23.80;99.90;;;;;;5032796;28;20166;-77
2022/06/24 12:44:16;;;;;;;2.50;1.90;;;23.90;99.90;;;;;;5016650;28;20198;-77
2022/06/24 12:52:38;;;;;;;2.58;1.83;;;24.40;99.90;;;;;;5035913;28;20586;-80
2022/06/24 12:55:06;;;;;;;1.70;1.60;;;24.90;99.90;;;;;;5033295;28;20579;-77
2022/06/24 12:57:32;;;;;;;1.50;1.40;;;25.00;99.90;;;;;;5033270;28;20166;-78
2022/06/24 12:59:57;;;;;;;4.25;1.70;;;25.20;99.90;;;;;;5033146;28;20171;-77
2022/06/24 13:02:23;;;;;;;1.75;1.65;;;25.10;99.90;;;;;;5016713;28;20171;-77
2022/06/24 13:04:49;;;;;;;1.63;1.50;;;24.90;99.90;;;;;;5000094;28;20217;-76
2022/06/24 13:07:14;;;;;;;1.55;1.45;;;24.70;99.90;;;;;;5032714;28;20648;-77
2022/06/24 13:09:40;;;;;;;1.95;1.50;;;24.50;99.90;;;;;;5016202;28;20186;-77